Avon, OH

11:16 PM EDT on October 31, 2014 (GMT -0400)
St. Mary School - Avon, OH | Change Station
CLOSE
Current Station
Personal Weather Station
Location: Avon, OH
Elevation: 682 ft
Nearby Weather Stations

Elev 682 ft 41.45 °N, 82.03 °W | Updated 6 seconds ago

Rain
Rain
43.4 °F
Feels Like 43 °F
N
1.0
Wind Variable Wind from West
Gusts 2.0 mph

Today
High -- | Low -- °F
--% Chance of Precip.
Yesterday
High -- | Low -- °F
Precip. -- in
7:58 AM 6:24 PM
First Quarter, 62% visible
Pressure 29.96 in
Visibility 7.0 miles
Clouds Overcast 2900 ft
Windchill 43 °F
Dew Point 42 °F
Humidity 96%
Rainfall 0.09 in
Snow Depth Not available.
UV 0 out of 12
Pollen .10 out of 12
Air Quality Not available.
Flu Activity Not available.
METAR KCLE 010251Z 32003KT 7SM -RA OVC029 06/04 A2995 RMK AO2 SLP145 P0000 60001 T00610044 53009

More Conditions Fewer Conditions

Pressure 29.96 in
Visibility 7.0 miles
Clouds Overcast 2900 ft
Windchill 43 °F
Dew Point 42 °F
Humidity 96%
Rainfall 0.09 in
Snow Depth Not available.
UV 0 out of 12
Pollen .10 out of 12
Air Quality Not available.
Flu Activity Not available.
METAR KCLE 010251Z 32003KT 7SM -RA OVC029 06/04 A2995 RMK AO2 SLP145 P0000 60001 T00610044 53009

More Conditions Fewer Conditions

10-Day Weather Forecast

Almanac

Astronomy

Oct. 31, 2014 Rise Set
Actual Time
Civil Twilight
Nautical Twilight
Astronomical Twilight
Moon
Length of Visible Light
Length of Day
Tomorrow will be .
, % of the Moon is Illuminated

Today's Extremes

State Highs State Lows

Community

WunderPhotos

Upload Photos

1,766,837 photos uploaded!

WunderBlogs® & News

Nearby

Air Quality

  Air Quality AQ Index Pollutant
Not available.

Snow Depth

Station Depth Elevation

Earthquake Activity

City Distance Mag. Time & Date
Minimum magnitude displayed is 2.5.

Coastal Water Temperatures

Place Temperature

Nearby Weather Stations